createdAt,value
2022-12-16T00:01:14.415Z,90.50
2022-12-16T00:03:42.378Z,90.50
2022-12-16T00:06:10.059Z,90.60
2022-12-16T00:08:39.441Z,90.60
2022-12-16T00:11:09.226Z,90.60
2022-12-16T00:13:37.776Z,90.60
2022-12-16T00:16:10.630Z,90.60
2022-12-16T00:18:37.849Z,90.70
2022-12-16T00:21:05.936Z,90.80
2022-12-16T00:23:34.322Z,90.80
2022-12-16T00:26:01.854Z,90.80
2022-12-16T00:28:28.821Z,90.80
2022-12-16T00:30:56.413Z,90.70
2022-12-16T00:33:25.637Z,90.70
2022-12-16T00:35:53.071Z,90.50
2022-12-16T00:38:21.227Z,90.40
2022-12-16T00:40:48.186Z,90.40
2022-12-16T00:43:15.029Z,90.30
2022-12-16T00:45:41.884Z,90.30
2022-12-16T00:48:08.897Z,90.30
2022-12-16T00:50:36.182Z,90.20
2022-12-16T00:53:04.045Z,90.30
2022-12-16T00:55:32.629Z,90.30
2022-12-16T00:57:59.487Z,90.40
2022-12-16T01:00:27.378Z,90.50
2022-12-16T01:02:54.304Z,90.60
2022-12-16T01:05:26.960Z,90.60
2022-12-16T01:07:54.622Z,90.60
2022-12-16T01:10:22.157Z,90.60
2022-12-16T01:12:49.668Z,90.60
2022-12-16T01:15:18.178Z,90.50
2022-12-16T01:17:44.986Z,90.50
2022-12-16T01:20:13.400Z,90.40
2022-12-16T01:22:40.476Z,90.30
2022-12-16T01:25:08.324Z,90.30
2022-12-16T01:27:35.486Z,90.30
2022-12-16T01:30:02.841Z,90.20
2022-12-16T01:32:30.025Z,90.10
2022-12-16T01:34:56.879Z,90.10
2022-12-16T01:37:24.395Z,90.00
2022-12-16T01:39:52.282Z,90.10
2022-12-16T01:42:22.630Z,90.20
2022-12-16T01:44:52.210Z,90.30
2022-12-16T01:47:32.855Z,90.30
2022-12-16T01:50:04.321Z,90.40
2022-12-16T01:52:36.311Z,90.40
2022-12-16T01:55:23.780Z,90.40
2022-12-16T01:58:04.631Z,90.30
2022-12-16T02:00:31.482Z,90.30
2022-12-16T02:02:58.684Z,90.20
2022-12-16T02:05:26.582Z,90.10
2022-12-16T02:07:56.346Z,90.10
2022-12-16T02:10:48.274Z,89.80
2022-12-16T02:13:33.612Z,89.70
2022-12-16T02:16:37.656Z,89.70
2022-12-16T02:19:43.026Z,89.60
2022-12-16T02:22:13.089Z,89.50
2022-12-16T02:25:02.034Z,89.40
2022-12-16T02:27:54.973Z,89.20
2022-12-16T02:30:47.020Z,89.20
2022-12-16T02:33:33.178Z,89.30
2022-12-16T02:36:31.962Z,89.20
2022-12-16T02:39:18.895Z,89.10
2022-12-16T02:41:58.070Z,89.10
2022-12-16T02:44:35.534Z,89.20
2022-12-16T02:47:02.873Z,89.30
2022-12-16T02:49:30.201Z,89.40
2022-12-16T02:51:59.724Z,89.40
2022-12-16T02:54:27.934Z,89.50
2022-12-16T02:57:16.618Z,89.50
2022-12-16T03:00:15.649Z,89.60
2022-12-16T03:02:51.567Z,89.70
2022-12-16T03:05:42.112Z,89.80
2022-12-16T03:08:21.738Z,89.80
2022-12-16T03:10:54.187Z,89.90
2022-12-16T03:13:22.969Z,89.80
2022-12-16T03:15:53.821Z,89.70
2022-12-16T03:18:22.058Z,89.40
2022-12-16T03:21:00.637Z,89.20
2022-12-16T03:24:03.345Z,89.10
2022-12-16T03:26:36.056Z,89.00
2022-12-16T03:29:06.483Z,89.00
2022-12-16T03:31:48.325Z,89.00
2022-12-16T03:34:20.878Z,89.00
2022-12-16T03:36:52.775Z,88.70
2022-12-16T03:39:23.216Z,88.60
2022-12-16T03:41:53.962Z,88.60
2022-12-16T03:44:22.735Z,88.50
2022-12-16T03:46:50.053Z,88.60
2022-12-16T03:49:16.808Z,88.60
2022-12-16T03:51:43.631Z,88.80
2022-12-16T03:54:10.507Z,88.90
2022-12-16T03:56:37.291Z,88.90
2022-12-16T03:59:04.056Z,88.90
2022-12-16T04:01:30.978Z,88.80
2022-12-16T04:03:57.856Z,88.70
2022-12-16T04:06:24.666Z,88.80
2022-12-16T04:08:51.409Z,88.80
2022-12-16T04:11:36.602Z,89.10
2022-12-16T04:14:21.962Z,89.20
2022-12-16T04:17:07.491Z,89.40
2022-12-16T04:19:55.471Z,89.40
2022-12-16T04:22:49.577Z,89.70
2022-12-16T04:25:32.410Z,89.80
2022-12-16T04:27:59.747Z,89.70
2022-12-16T04:30:27.961Z,89.50
2022-12-16T04:33:31.617Z,89.40
2022-12-16T04:36:17.369Z,88.90
2022-12-16T04:39:02.856Z,88.60
2022-12-16T04:41:47.940Z,88.40
2022-12-16T04:44:34.555Z,88.30
2022-12-16T04:47:20.116Z,88.20
2022-12-16T04:50:05.546Z,88.10
2022-12-16T04:52:51.095Z,88.20
2022-12-16T04:55:36.596Z,88.30
2022-12-16T04:58:32.078Z,88.30
2022-12-16T05:01:18.224Z,88.30
2022-12-16T05:04:03.917Z,88.10
2022-12-16T05:06:49.220Z,88.00
2022-12-16T05:09:34.635Z,87.90
2022-12-16T05:12:20.038Z,87.70
2022-12-16T05:15:05.531Z,87.70
2022-12-16T05:17:51.293Z,87.40
2022-12-16T05:20:36.603Z,87.30
2022-12-16T05:23:22.251Z,87.10
2022-12-16T05:26:07.369Z,87.10
2022-12-16T05:28:52.891Z,87.10
2022-12-16T05:31:38.437Z,86.90
2022-12-16T05:34:23.539Z,86.90
2022-12-16T05:37:09.081Z,87.00
2022-12-16T05:39:54.557Z,87.20
2022-12-16T05:42:40.054Z,87.20
2022-12-16T05:45:25.558Z,87.20
2022-12-16T05:48:11.114Z,87.30
2022-12-16T05:50:56.598Z,87.40
2022-12-16T05:53:41.850Z,87.50
2022-12-16T05:56:27.225Z,87.60
2022-12-16T05:59:29.420Z,87.60
2022-12-16T06:02:45.369Z,87.50
2022-12-16T06:05:30.697Z,87.20
2022-12-16T06:08:16.331Z,86.80
2022-12-16T06:11:01.691Z,86.50
2022-12-16T06:13:46.932Z,86.50
2022-12-16T06:16:32.189Z,86.50
2022-12-16T06:19:17.870Z,86.50
2022-12-16T06:22:03.423Z,86.70
2022-12-16T06:24:48.808Z,86.90
2022-12-16T06:27:34.020Z,86.90
2022-12-16T06:30:19.440Z,86.50
2022-12-16T06:33:04.979Z,86.40
2022-12-16T06:35:50.250Z,86.40
2022-12-16T06:38:35.761Z,86.30
2022-12-16T06:41:20.923Z,86.20
2022-12-16T06:44:06.525Z,86.10
2022-12-16T06:46:51.871Z,85.90
2022-12-16T06:49:37.375Z,85.60
2022-12-16T06:52:22.952Z,85.50
2022-12-16T06:55:08.359Z,85.50
2022-12-16T06:57:53.696Z,85.50
2022-12-16T07:00:39.263Z,85.50
2022-12-16T07:03:24.853Z,85.40
2022-12-16T07:06:14.119Z,85.00
2022-12-16T07:08:59.764Z,85.10
2022-12-16T07:11:45.226Z,85.30
2022-12-16T07:14:30.641Z,85.50
2022-12-16T07:17:17.398Z,85.50
2022-12-16T07:20:03.479Z,85.80
2022-12-16T07:22:52.226Z,86.00
2022-12-16T07:25:44.019Z,86.20
2022-12-16T07:28:29.449Z,86.40
2022-12-16T07:31:19.439Z,86.60
2022-12-16T07:34:05.088Z,86.80
2022-12-16T07:36:50.809Z,87.00
2022-12-16T07:39:36.033Z,87.10
2022-12-16T07:42:21.533Z,87.10
2022-12-16T07:45:07.034Z,87.10
2022-12-16T07:47:52.442Z,87.30
2022-12-16T07:50:54.600Z,87.40
2022-12-16T07:53:41.762Z,87.50
2022-12-16T07:56:27.540Z,87.70
2022-12-16T07:59:13.280Z,87.70
2022-12-16T08:01:58.763Z,87.80
2022-12-16T08:04:44.536Z,87.90
2022-12-16T08:07:30.349Z,88.10
2022-12-16T08:10:15.665Z,88.40
2022-12-16T08:13:01.210Z,88.50
2022-12-16T08:15:46.773Z,88.70
2022-12-16T08:18:32.055Z,88.80
2022-12-16T08:21:17.547Z,88.90
2022-12-16T08:24:07.592Z,89.10
2022-12-16T08:26:53.130Z,89.10
2022-12-16T08:29:44.654Z,89.10
2022-12-16T08:32:31.579Z,89.30
2022-12-16T08:35:16.917Z,89.40
2022-12-16T08:38:02.237Z,89.40
2022-12-16T08:40:47.622Z,89.40
2022-12-16T08:43:34.109Z,89.30
2022-12-16T08:46:19.932Z,89.10
2022-12-16T08:49:05.354Z,89.10
2022-12-16T08:51:51.005Z,89.20
2022-12-16T08:54:36.502Z,89.20
2022-12-16T08:57:22.061Z,89.40
2022-12-16T09:00:07.531Z,89.50
2022-12-16T09:02:53.141Z,89.50
2022-12-16T09:05:41.720Z,89.60
2022-12-16T09:08:27.152Z,89.60
2022-12-16T09:11:12.594Z,89.70
2022-12-16T09:13:58.056Z,89.70
2022-12-16T09:16:43.644Z,89.60
2022-12-16T09:19:29.558Z,89.50
2022-12-16T09:22:14.751Z,89.40
2022-12-16T09:25:00.079Z,89.20
2022-12-16T09:27:45.606Z,88.80
2022-12-16T09:30:31.176Z,88.60
2022-12-16T09:33:16.878Z,88.30
2022-12-16T09:36:02.361Z,88.30
2022-12-16T09:38:47.662Z,88.10
2022-12-16T09:41:46.947Z,88.10
2022-12-16T09:44:41.176Z,88.10
2022-12-16T09:47:42.026Z,88.40
2022-12-16T09:50:38.483Z,88.60
2022-12-16T09:53:27.964Z,88.70
2022-12-16T09:56:13.925Z,88.90
2022-12-16T09:59:04.664Z,89.00
2022-12-16T10:01:54.744Z,89.00
2022-12-16T10:04:43.093Z,88.90
2022-12-16T10:07:53.803Z,88.70
2022-12-16T10:10:59.378Z,88.60
2022-12-16T10:14:06.946Z,88.30
2022-12-16T10:17:04.594Z,88.40
2022-12-16T10:20:08.739Z,88.60
2022-12-16T10:23:33.939Z,88.80
2022-12-16T10:26:44.456Z,89.10
2022-12-16T10:29:49.861Z,89.30
2022-12-16T10:32:54.403Z,89.40
2022-12-16T10:35:46.714Z,89.50
2022-12-16T10:38:46.177Z,89.70
2022-12-16T10:41:34.247Z,89.90
2022-12-16T10:44:22.499Z,90.00
2022-12-16T10:47:08.099Z,90.10
2022-12-16T10:49:54.958Z,90.10
2022-12-16T10:52:40.710Z,90.20
2022-12-16T10:56:12.504Z,90.30
2022-12-16T10:59:00.841Z,90.40
2022-12-16T11:01:47.073Z,90.40
2022-12-16T11:04:48.846Z,90.40
2022-12-16T11:08:04.816Z,90.40
2022-12-16T11:10:56.456Z,90.50
2022-12-16T11:13:48.894Z,90.50
2022-12-16T11:16:44.212Z,90.60
2022-12-16T11:19:42.855Z,90.60
2022-12-16T11:22:36.913Z,90.60
2022-12-16T11:25:31.148Z,90.60
2022-12-16T11:28:24.461Z,90.60
2022-12-16T11:31:13.963Z,90.60
2022-12-16T11:34:00.819Z,90.50
2022-12-16T11:36:46.449Z,90.60
2022-12-16T11:39:39.142Z,90.70
2022-12-16T11:42:28.175Z,90.60
2022-12-16T11:45:17.624Z,90.60
2022-12-16T11:48:12.130Z,90.60
2022-12-16T11:51:06.991Z,90.70
2022-12-16T11:54:15.229Z,90.70
2022-12-16T11:57:03.841Z,90.70
2022-12-16T11:59:58.647Z,90.80
2022-12-16T12:03:13.674Z,90.80
2022-12-16T12:06:39.014Z,90.90
2022-12-16T12:09:34.385Z,90.90
2022-12-16T12:12:38.730Z,91.00
2022-12-16T12:15:26.803Z,91.00
2022-12-16T12:18:21.320Z,91.10
2022-12-16T12:21:17.311Z,91.10
2022-12-16T12:24:19.536Z,91.10
2022-12-16T12:27:33.199Z,91.20
2022-12-16T12:30:25.319Z,91.30
2022-12-16T12:33:38.582Z,91.30
2022-12-16T12:36:49.828Z,91.40
2022-12-16T12:39:38.162Z,91.40
2022-12-16T12:42:48.735Z,91.40
2022-12-16T12:45:49.924Z,91.40
2022-12-16T12:48:46.813Z,91.40
2022-12-16T12:51:49.340Z,91.40
2022-12-16T12:54:43.863Z,91.50
2022-12-16T12:57:32.360Z,91.60
2022-12-16T13:00:27.094Z,91.60
2022-12-16T13:03:31.883Z,91.70
2022-12-16T13:06:19.360Z,91.80
2022-12-16T13:09:18.347Z,91.80
2022-12-16T13:12:26.016Z,91.90
2022-12-16T13:15:52.117Z,91.90
2022-12-16T13:18:43.989Z,92.00
2022-12-16T13:21:57.635Z,92.00
2022-12-16T13:25:06.746Z,92.10
2022-12-16T13:28:11.946Z,92.10
2022-12-16T13:30:57.761Z,92.00
2022-12-16T13:33:55.093Z,92.00
2022-12-16T13:36:52.859Z,92.00
2022-12-16T13:39:47.046Z,92.00
2022-12-16T13:43:07.872Z,92.00
2022-12-16T13:45:59.341Z,92.00
2022-12-16T13:49:02.659Z,92.00
2022-12-16T13:51:57.119Z,92.00
2022-12-16T13:54:59.386Z,92.00
2022-12-16T13:57:47.683Z,92.00
2022-12-16T14:00:40.957Z,92.00
2022-12-16T14:03:38.970Z,91.90
2022-12-16T14:06:31.282Z,91.90
2022-12-16T14:09:16.644Z,91.90
2022-12-16T14:12:27.933Z,92.00
2022-12-16T14:15:24.823Z,92.00
2022-12-16T14:18:33.457Z,92.10
2022-12-16T14:21:22.326Z,92.10
2022-12-16T14:24:24.733Z,92.10
2022-12-16T14:27:10.148Z,92.10
2022-12-16T14:29:56.729Z,92.20
2022-12-16T14:32:53.790Z,92.20
2022-12-16T14:35:42.441Z,92.20
2022-12-16T14:38:47.802Z,92.30
2022-12-16T14:41:43.848Z,92.40
2022-12-16T14:44:42.114Z,92.40
2022-12-16T14:47:37.163Z,92.40
2022-12-16T14:50:30.118Z,92.50
2022-12-16T14:53:39.017Z,92.50
2022-12-16T14:56:42.054Z,92.50
2022-12-16T14:59:34.616Z,92.50
2022-12-16T15:02:47.122Z,92.60
2022-12-16T15:05:33.400Z,92.60
2022-12-16T15:08:19.642Z,92.60
2022-12-16T15:11:05.405Z,92.70
2022-12-16T15:13:54.343Z,92.70
2022-12-16T15:16:49.909Z,92.80
2022-12-16T15:19:40.621Z,92.70
2022-12-16T15:22:34.784Z,92.80
2022-12-16T15:25:20.775Z,92.90
2022-12-16T15:28:34.424Z,92.90
2022-12-16T15:31:19.695Z,93.00
2022-12-16T15:34:05.030Z,92.90
2022-12-16T15:36:53.205Z,93.00
2022-12-16T15:39:39.949Z,93.00
2022-12-16T15:42:40.750Z,93.20
2022-12-16T15:45:36.887Z,93.30
2022-12-16T15:48:33.810Z,93.30
2022-12-16T15:51:19.263Z,93.40
2022-12-16T15:54:04.985Z,93.40
2022-12-16T15:57:02.804Z,93.50
2022-12-16T15:59:54.488Z,93.50
2022-12-16T16:02:45.318Z,93.40
2022-12-16T16:05:43.335Z,93.50
2022-12-16T16:08:29.997Z,93.50
2022-12-16T16:11:15.402Z,93.40
2022-12-16T16:14:06.224Z,93.50
2022-12-16T16:16:55.128Z,93.50
2022-12-16T16:19:43.549Z,93.60
2022-12-16T16:22:34.537Z,93.60
2022-12-16T16:25:19.826Z,93.60
2022-12-16T16:28:05.399Z,93.70
2022-12-16T16:30:51.227Z,93.70
2022-12-16T16:33:37.172Z,93.80
2022-12-16T16:36:32.677Z,93.80
2022-12-16T16:39:18.454Z,93.90
2022-12-16T16:42:03.692Z,93.90
2022-12-16T16:45:00.178Z,93.90
2022-12-16T16:47:45.786Z,94.00
2022-12-16T16:50:34.248Z,94.10
2022-12-16T16:53:19.687Z,94.10
2022-12-16T16:56:04.945Z,94.10
2022-12-16T16:58:52.981Z,94.20
2022-12-16T17:01:38.593Z,94.10
2022-12-16T17:04:24.348Z,94.10
2022-12-16T17:07:10.776Z,94.10
2022-12-16T17:09:56.134Z,94.20
2022-12-16T17:12:46.297Z,94.20
2022-12-16T17:15:50.273Z,94.20
2022-12-16T17:18:37.697Z,94.10
2022-12-16T17:21:26.762Z,94.10
2022-12-16T17:24:12.286Z,94.00
2022-12-16T17:27:01.917Z,94.20
2022-12-16T17:29:48.044Z,94.40
2022-12-16T17:32:33.591Z,94.30
2022-12-16T17:35:21.882Z,93.70
2022-12-16T17:38:07.514Z,93.40
2022-12-16T17:40:52.884Z,93.20
2022-12-16T17:43:38.349Z,93.10
2022-12-16T17:46:26.453Z,93.10
2022-12-16T17:49:13.439Z,93.00
2022-12-16T17:52:00.053Z,93.00
2022-12-16T17:54:45.465Z,93.00
2022-12-16T17:57:31.058Z,92.90
2022-12-16T18:00:16.822Z,93.00
2022-12-16T18:03:02.561Z,93.00
2022-12-16T18:05:48.415Z,93.00
2022-12-16T18:08:33.944Z,92.90
2022-12-16T18:11:19.278Z,93.00
2022-12-16T18:14:04.762Z,93.00
2022-12-16T18:16:50.253Z,93.00
2022-12-16T18:19:36.233Z,92.90
2022-12-16T18:22:22.265Z,92.90
2022-12-16T18:25:07.788Z,92.90
2022-12-16T18:27:54.834Z,93.00
2022-12-16T18:30:40.462Z,93.00
2022-12-16T18:33:26.013Z,93.10
2022-12-16T18:36:11.503Z,93.10
2022-12-16T18:38:57.043Z,93.00
2022-12-16T18:41:42.612Z,92.90
2022-12-16T18:44:32.165Z,92.90
2022-12-16T18:47:17.685Z,92.90
2022-12-16T18:50:03.230Z,92.90
2022-12-16T18:52:48.772Z,93.00
2022-12-16T18:55:34.291Z,93.10
2022-12-16T18:58:50.751Z,93.20
2022-12-16T19:01:28.790Z,93.30
2022-12-16T19:04:15.548Z,93.20
2022-12-16T19:07:10.636Z,93.10
2022-12-16T19:09:56.260Z,93.10
2022-12-16T19:12:41.694Z,93.20
2022-12-16T19:15:27.542Z,93.20
2022-12-16T19:18:12.916Z,93.30
2022-12-16T19:20:58.529Z,93.40
2022-12-16T19:23:43.914Z,93.40
2022-12-16T19:26:29.310Z,93.20
2022-12-16T19:29:14.779Z,93.30
2022-12-16T19:32:00.361Z,93.40
2022-12-16T19:34:45.605Z,93.40
2022-12-16T19:37:31.144Z,93.30
2022-12-16T19:40:17.998Z,93.30
2022-12-16T19:43:03.472Z,93.50
2022-12-16T19:45:49.110Z,93.50
2022-12-16T19:48:34.827Z,93.60
2022-12-16T19:51:21.322Z,93.70
2022-12-16T19:56:33.590Z,93.70
2022-12-16T19:59:19.210Z,93.80
2022-12-16T20:02:04.580Z,93.70
2022-12-16T20:04:50.050Z,93.40
2022-12-16T20:07:35.582Z,93.20
2022-12-16T20:10:20.800Z,92.90
2022-12-16T20:13:06.331Z,92.70
2022-12-16T20:15:51.926Z,92.30
2022-12-16T20:18:37.190Z,92.10
2022-12-16T20:21:23.774Z,91.70
2022-12-16T20:24:09.153Z,91.40
2022-12-16T20:26:54.645Z,91.40
2022-12-16T20:29:41.010Z,91.40
2022-12-16T20:32:26.559Z,91.50
2022-12-16T20:35:12.294Z,91.60
2022-12-16T20:37:57.720Z,91.80
2022-12-16T20:40:43.626Z,91.90
2022-12-16T20:43:30.946Z,92.00
2022-12-16T20:46:16.271Z,92.10
2022-12-16T20:49:01.993Z,92.20
2022-12-16T20:51:49.080Z,92.10
2022-12-16T20:54:34.680Z,92.30
2022-12-16T20:57:20.077Z,92.40
2022-12-16T21:00:05.437Z,92.60
2022-12-16T21:02:53.420Z,92.70
2022-12-16T21:05:39.332Z,92.70
2022-12-16T21:08:24.630Z,92.80
2022-12-16T21:11:14.334Z,92.80
2022-12-16T21:13:59.760Z,92.70
2022-12-16T21:16:45.500Z,92.60
2022-12-16T21:19:33.572Z,92.60
2022-12-16T21:22:19.629Z,92.80
2022-12-16T21:25:05.175Z,92.80
2022-12-16T21:27:50.570Z,92.90
2022-12-16T21:30:35.874Z,93.00
2022-12-16T21:33:21.168Z,92.80
2022-12-16T21:36:13.428Z,92.70
2022-12-16T21:38:58.789Z,92.70
2022-12-16T21:41:44.183Z,92.70
2022-12-16T21:44:29.559Z,92.80
2022-12-16T21:47:14.896Z,92.70
2022-12-16T21:50:00.306Z,92.80
2022-12-16T21:52:45.917Z,92.90
2022-12-16T21:55:31.671Z,93.00
2022-12-16T21:58:17.090Z,92.90
2022-12-16T22:01:02.251Z,92.70
2022-12-16T22:03:54.873Z,92.50
2022-12-16T22:06:48.251Z,92.40
2022-12-16T22:09:34.634Z,92.30
2022-12-16T22:12:20.176Z,92.40
2022-12-16T22:15:05.841Z,92.50
2022-12-16T22:17:57.721Z,92.60
2022-12-16T22:20:44.123Z,92.70
2022-12-16T22:23:29.445Z,92.70
2022-12-16T22:26:16.150Z,92.80
2022-12-16T22:29:01.443Z,92.80
2022-12-16T22:31:47.532Z,92.90
2022-12-16T22:34:33.134Z,93.00
2022-12-16T22:37:18.607Z,92.90
2022-12-16T22:40:04.235Z,92.90
2022-12-16T22:42:49.562Z,93.10
2022-12-16T22:45:35.030Z,93.10
2022-12-16T22:48:20.758Z,93.20
2022-12-16T22:51:06.341Z,93.30
2022-12-16T22:53:51.682Z,93.40
2022-12-16T22:56:37.252Z,93.40
2022-12-16T22:59:22.565Z,93.30
2022-12-16T23:02:08.296Z,93.40
2022-12-16T23:04:53.752Z,93.50
2022-12-16T23:07:39.557Z,93.60
2022-12-16T23:10:25.635Z,93.70
2022-12-16T23:13:10.987Z,93.80
2022-12-16T23:15:56.538Z,93.70
2022-12-16T23:18:42.328Z,93.50
2022-12-16T23:21:37.248Z,93.30
2022-12-16T23:24:23.346Z,93.10
2022-12-16T23:27:10.849Z,93.10
2022-12-16T23:29:56.795Z,93.00
2022-12-16T23:32:43.352Z,93.00
2022-12-16T23:35:29.093Z,93.00
2022-12-16T23:38:24.462Z,93.00
2022-12-16T23:41:18.691Z,92.80
2022-12-16T23:44:04.316Z,92.70
2022-12-16T23:46:50.001Z,92.70
2022-12-16T23:49:35.415Z,92.90
2022-12-16T23:52:20.929Z,92.80
2022-12-16T23:55:06.401Z,92.80
2022-12-16T23:57:51.936Z,92.80
